sensor_id;sensor_type;location;lat;lon;timestamp;temperature;humidity
19214;DHT22;9741;51.020;5.304;2023-02-14T00:02:11;2.20;60.50
19214;DHT22;9741;51.020;5.304;2023-02-14T00:04:38;2.20;60.00
19214;DHT22;9741;51.020;5.304;2023-02-14T00:07:09;2.20;60.00
19214;DHT22;9741;51.020;5.304;2023-02-14T00:09:36;2.10;59.80
19214;DHT22;9741;51.020;5.304;2023-02-14T00:12:03;2.10;59.90
19214;DHT22;9741;51.020;5.304;2023-02-14T00:14:32;2.10;60.00
19214;DHT22;9741;51.020;5.304;2023-02-14T00:17:18;2.10;60.00
19214;DHT22;9741;51.020;5.304;2023-02-14T00:19:45;2.10;60.00
19214;DHT22;9741;51.020;5.304;2023-02-14T00:22:12;2.10;60.00
19214;DHT22;9741;51.020;5.304;2023-02-14T00:24:39;2.10;60.00
19214;DHT22;9741;51.020;5.304;2023-02-14T00:27:06;2.00;59.90
19214;DHT22;9741;51.020;5.304;2023-02-14T00:29:33;2.00;60.00
19214;DHT22;9741;51.020;5.304;2023-02-14T00:32:01;2.00;60.00
19214;DHT22;9741;51.020;5.304;2023-02-14T00:34:30;1.90;59.90
19214;DHT22;9741;51.020;5.304;2023-02-14T00:36:58;1.90;60.00
19214;DHT22;9741;51.020;5.304;2023-02-14T00:39:25;1.90;59.90
19214;DHT22;9741;51.020;5.304;2023-02-14T00:41:52;1.80;59.80
19214;DHT22;9741;51.020;5.304;2023-02-14T00:44:19;1.80;59.90
19214;DHT22;9741;51.020;5.304;2023-02-14T00:46:46;1.70;59.80
19214;DHT22;9741;51.020;5.304;2023-02-14T00:49:13;1.70;59.90
19214;DHT22;9741;51.020;5.304;2023-02-14T00:51:41;1.70;59.90
19214;DHT22;9741;51.020;5.304;2023-02-14T00:54:08;1.70;60.00
19214;DHT22;9741;51.020;5.304;2023-02-14T00:56:35;1.60;59.90
19214;DHT22;9741;51.020;5.304;2023-02-14T00:59:02;1.60;59.90
19214;DHT22;9741;51.020;5.304;2023-02-14T01:01:30;1.60;59.90
19214;DHT22;9741;51.020;5.304;2023-02-14T01:03:57;1.50;59.90
19214;DHT22;9741;51.020;5.304;2023-02-14T01:06:24;1.50;60.00
19214;DHT22;9741;51.020;5.304;2023-02-14T01:08:53;1.50;60.00
19214;DHT22;9741;51.020;5.304;2023-02-14T01:11:22;1.40;60.00
19214;DHT22;9741;51.020;5.304;2023-02-14T01:13:50;1.40;60.00
19214;DHT22;9741;51.020;5.304;2023-02-14T01:16:20;1.40;60.00
19214;DHT22;9741;51.020;5.304;2023-02-14T01:18:47;1.40;60.00
19214;DHT22;9741;51.020;5.304;2023-02-14T01:21:17;1.40;60.00
19214;DHT22;9741;51.020;5.304;2023-02-14T01:23:45;1.30;59.90
19214;DHT22;9741;51.020;5.304;2023-02-14T01:26:15;1.30;60.00
19214;DHT22;9741;51.020;5.304;2023-02-14T01:28:43;1.30;60.00
19214;DHT22;9741;51.020;5.304;2023-02-14T01:31:13;1.30;60.00
19214;DHT22;9741;51.020;5.304;2023-02-14T01:33:41;1.30;60.00
19214;DHT22;9741;51.020;5.304;2023-02-14T01:36:15;1.30;60.00
19214;DHT22;9741;51.020;5.304;2023-02-14T01:38:42;1.20;60.00
19214;DHT22;9741;51.020;5.304;2023-02-14T01:41:09;1.20;60.00
19214;DHT22;9741;51.020;5.304;2023-02-14T01:43:57;1.20;60.00
19214;DHT22;9741;51.020;5.304;2023-02-14T01:46:26;1.20;60.10
19214;DHT22;9741;51.020;5.304;2023-02-14T01:48:59;1.20;60.10
19214;DHT22;9741;51.020;5.304;2023-02-14T01:51:27;1.20;60.10
19214;DHT22;9741;51.020;5.304;2023-02-14T01:53:55;1.10;60.10
19214;DHT22;9741;51.020;5.304;2023-02-14T01:56:26;1.10;60.10
19214;DHT22;9741;51.020;5.304;2023-02-14T01:58:59;1.10;60.10
19214;DHT22;9741;51.020;5.304;2023-02-14T02:01:27;1.10;60.00
19214;DHT22;9741;51.020;5.304;2023-02-14T02:03:57;1.10;60.10
19214;DHT22;9741;51.020;5.304;2023-02-14T02:06:29;1.10;60.10
19214;DHT22;9741;51.020;5.304;2023-02-14T02:09:06;1.10;60.10
19214;DHT22;9741;51.020;5.304;2023-02-14T02:11:34;1.00;60.10
19214;DHT22;9741;51.020;5.304;2023-02-14T02:14:04;1.00;60.10
19214;DHT22;9741;51.020;5.304;2023-02-14T02:16:49;1.00;60.10
19214;DHT22;9741;51.020;5.304;2023-02-14T02:19:43;1.00;60.10
19214;DHT22;9741;51.020;5.304;2023-02-14T02:25:49;1.00;60.10
19214;DHT22;9741;51.020;5.304;2023-02-14T02:28:55;0.90;60.10
19214;DHT22;9741;51.020;5.304;2023-02-14T02:31:55;0.90;60.10
19214;DHT22;9741;51.020;5.304;2023-02-14T02:35:01;0.80;60.10
19214;DHT22;9741;51.020;5.304;2023-02-14T02:37:39;0.80;60.10
19214;DHT22;9741;51.020;5.304;2023-02-14T02:40:20;0.80;60.10
19214;DHT22;9741;51.020;5.304;2023-02-14T02:42:54;0.80;60.20
19214;DHT22;9741;51.020;5.304;2023-02-14T02:45:27;0.80;60.30
19214;DHT22;9741;51.020;5.304;2023-02-14T02:48:02;0.70;60.20
19214;DHT22;9741;51.020;5.304;2023-02-14T02:50:36;0.70;60.20
19214;DHT22;9741;51.020;5.304;2023-02-14T02:53:26;0.70;60.20
19214;DHT22;9741;51.020;5.304;2023-02-14T02:55:57;0.70;60.20
19214;DHT22;9741;51.020;5.304;2023-02-14T02:58:48;0.70;60.30
19214;DHT22;9741;51.020;5.304;2023-02-14T03:01:21;0.70;60.30
19214;DHT22;9741;51.020;5.304;2023-02-14T03:03:53;0.70;60.30
19214;DHT22;9741;51.020;5.304;2023-02-14T03:06:41;0.70;60.30
19214;DHT22;9741;51.020;5.304;2023-02-14T03:09:52;0.70;60.20
19214;DHT22;9741;51.020;5.304;2023-02-14T03:15:16;0.60;60.20
19214;DHT22;9741;51.020;5.304;2023-02-14T03:17:53;0.60;60.20
19214;DHT22;9741;51.020;5.304;2023-02-14T03:20:23;0.60;60.20
19214;DHT22;9741;51.020;5.304;2023-02-14T03:23:01;0.60;60.20
19214;DHT22;9741;51.020;5.304;2023-02-14T03:25:40;0.60;60.20
19214;DHT22;9741;51.020;5.304;2023-02-14T03:28:13;0.60;60.20
19214;DHT22;9741;51.020;5.304;2023-02-14T03:30:47;0.60;60.20
19214;DHT22;9741;51.020;5.304;2023-02-14T03:33:21;0.60;60.20
19214;DHT22;9741;51.020;5.304;2023-02-14T03:35:55;0.60;60.20
19214;DHT22;9741;51.020;5.304;2023-02-14T03:38:32;0.60;60.20
19214;DHT22;9741;51.020;5.304;2023-02-14T03:41:04;0.60;60.20
19214;DHT22;9741;51.020;5.304;2023-02-14T03:43:35;0.60;60.30
19214;DHT22;9741;51.020;5.304;2023-02-14T03:46:07;0.60;60.20
19214;DHT22;9741;51.020;5.304;2023-02-14T03:48:36;0.60;60.20
19214;DHT22;9741;51.020;5.304;2023-02-14T03:51:06;0.60;60.20
19214;DHT22;9741;51.020;5.304;2023-02-14T03:53:36;0.60;60.20
19214;DHT22;9741;51.020;5.304;2023-02-14T03:56:11;0.60;60.20
19214;DHT22;9741;51.020;5.304;2023-02-14T03:58:43;0.60;60.20
19214;DHT22;9741;51.020;5.304;2023-02-14T04:01:14;0.60;60.20
19214;DHT22;9741;51.020;5.304;2023-02-14T04:03:43;0.60;60.30
19214;DHT22;9741;51.020;5.304;2023-02-14T04:06:11;0.50;60.20
19214;DHT22;9741;51.020;5.304;2023-02-14T04:08:38;0.50;60.20
19214;DHT22;9741;51.020;5.304;2023-02-14T04:11:06;0.50;60.20
19214;DHT22;9741;51.020;5.304;2023-02-14T04:13:34;0.50;60.30
19214;DHT22;9741;51.020;5.304;2023-02-14T04:16:02;0.50;60.40
19214;DHT22;9741;51.020;5.304;2023-02-14T04:18:30;0.50;60.40
19214;DHT22;9741;51.020;5.304;2023-02-14T04:21:19;0.50;60.40
19214;DHT22;9741;51.020;5.304;2023-02-14T04:23:46;0.60;60.50
19214;DHT22;9741;51.020;5.304;2023-02-14T04:26:15;0.60;60.40
19214;DHT22;9741;51.020;5.304;2023-02-14T04:28:42;0.60;60.40
19214;DHT22;9741;51.020;5.304;2023-02-14T04:31:09;0.50;60.30
19214;DHT22;9741;51.020;5.304;2023-02-14T04:33:36;0.50;60.30
19214;DHT22;9741;51.020;5.304;2023-02-14T04:36:04;0.50;60.30
19214;DHT22;9741;51.020;5.304;2023-02-14T04:38:31;0.50;60.30
19214;DHT22;9741;51.020;5.304;2023-02-14T04:40:58;0.50;60.40
19214;DHT22;9741;51.020;5.304;2023-02-14T04:43:27;0.50;60.50
19214;DHT22;9741;51.020;5.304;2023-02-14T04:45:54;0.60;60.60
19214;DHT22;9741;51.020;5.304;2023-02-14T04:48:21;0.60;60.60
19214;DHT22;9741;51.020;5.304;2023-02-14T04:50:50;0.60;60.50
19214;DHT22;9741;51.020;5.304;2023-02-14T04:53:18;0.60;60.40
19214;DHT22;9741;51.020;5.304;2023-02-14T04:55:47;0.60;60.30
19214;DHT22;9741;51.020;5.304;2023-02-14T04:58:14;0.50;60.20
19214;DHT22;9741;51.020;5.304;2023-02-14T05:00:43;0.50;60.30
19214;DHT22;9741;51.020;5.304;2023-02-14T05:03:10;0.50;60.40
19214;DHT22;9741;51.020;5.304;2023-02-14T05:05:37;0.50;60.40
19214;DHT22;9741;51.020;5.304;2023-02-14T05:08:04;0.40;60.40
19214;DHT22;9741;51.020;5.304;2023-02-14T05:10:31;0.40;60.40
19214;DHT22;9741;51.020;5.304;2023-02-14T05:12:59;0.40;60.40
19214;DHT22;9741;51.020;5.304;2023-02-14T05:15:26;0.40;60.40
19214;DHT22;9741;51.020;5.304;2023-02-14T05:17:54;0.40;60.40
19214;DHT22;9741;51.020;5.304;2023-02-14T05:20:26;0.40;60.40
19214;DHT22;9741;51.020;5.304;2023-02-14T05:22:53;0.40;60.40
19214;DHT22;9741;51.020;5.304;2023-02-14T05:25:21;0.30;60.40
19214;DHT22;9741;51.020;5.304;2023-02-14T05:27:48;0.30;60.40
19214;DHT22;9741;51.020;5.304;2023-02-14T05:30:15;0.30;60.40
19214;DHT22;9741;51.020;5.304;2023-02-14T05:32:42;0.30;60.40
19214;DHT22;9741;51.020;5.304;2023-02-14T05:35:10;0.30;60.40
19214;DHT22;9741;51.020;5.304;2023-02-14T05:37:37;0.30;60.50
19214;DHT22;9741;51.020;5.304;2023-02-14T05:40:06;0.30;60.50
19214;DHT22;9741;51.020;5.304;2023-02-14T05:42:33;0.30;60.40
19214;DHT22;9741;51.020;5.304;2023-02-14T05:45:01;0.30;60.50
19214;DHT22;9741;51.020;5.304;2023-02-14T05:47:28;0.30;60.50
19214;DHT22;9741;51.020;5.304;2023-02-14T05:49:55;0.20;60.40
19214;DHT22;9741;51.020;5.304;2023-02-14T05:52:23;0.20;60.40
19214;DHT22;9741;51.020;5.304;2023-02-14T05:54:50;0.20;60.40
19214;DHT22;9741;51.020;5.304;2023-02-14T05:57:19;0.20;60.40
19214;DHT22;9741;51.020;5.304;2023-02-14T05:59:46;0.20;60.40
19214;DHT22;9741;51.020;5.304;2023-02-14T06:02:13;0.10;60.90
19214;DHT22;9741;51.020;5.304;2023-02-14T06:04:40;0.10;60.40
19214;DHT22;9741;51.020;5.304;2023-02-14T06:07:08;0.10;60.90
19214;DHT22;9741;51.020;5.304;2023-02-14T06:09:36;0.10;60.50
19214;DHT22;9741;51.020;5.304;2023-02-14T06:12:03;0.10;60.50
19214;DHT22;9741;51.020;5.304;2023-02-14T06:14:30;0.10;60.50
19214;DHT22;9741;51.020;5.304;2023-02-14T06:16:57;0.10;60.50
19214;DHT22;9741;51.020;5.304;2023-02-14T06:19:24;0.10;60.50
19214;DHT22;9741;51.020;5.304;2023-02-14T06:21:51;0.10;60.50
19214;DHT22;9741;51.020;5.304;2023-02-14T06:24:18;0.10;60.60
19214;DHT22;9741;51.020;5.304;2023-02-14T06:26:47;0.10;60.60
19214;DHT22;9741;51.020;5.304;2023-02-14T06:29:15;0.10;60.70
19214;DHT22;9741;51.020;5.304;2023-02-14T06:31:43;0.10;60.60
19214;DHT22;9741;51.020;5.304;2023-02-14T06:34:10;0.10;60.50
19214;DHT22;9741;51.020;5.304;2023-02-14T06:36:37;0.10;60.50
19214;DHT22;9741;51.020;5.304;2023-02-14T06:39:04;0.10;60.40
19214;DHT22;9741;51.020;5.304;2023-02-14T06:41:31;0.10;60.50
19214;DHT22;9741;51.020;5.304;2023-02-14T06:43:59;0.10;60.50
19214;DHT22;9741;51.020;5.304;2023-02-14T06:46:26;0.10;60.60
19214;DHT22;9741;51.020;5.304;2023-02-14T06:48:53;0.00;60.40
19214;DHT22;9741;51.020;5.304;2023-02-14T06:51:20;0.00;60.40
19214;DHT22;9741;51.020;5.304;2023-02-14T06:53:47;0.00;60.60
19214;DHT22;9741;51.020;5.304;2023-02-14T06:56:14;0.10;60.70
19214;DHT22;9741;51.020;5.304;2023-02-14T06:58:41;0.10;60.60
19214;DHT22;9741;51.020;5.304;2023-02-14T07:01:10;0.10;60.60
19214;DHT22;9741;51.020;5.304;2023-02-14T07:03:37;0.10;60.60
19214;DHT22;9741;51.020;5.304;2023-02-14T07:06:04;0.10;60.60
19214;DHT22;9741;51.020;5.304;2023-02-14T07:08:31;0.10;60.60
19214;DHT22;9741;51.020;5.304;2023-02-14T07:10:58;0.10;60.60
19214;DHT22;9741;51.020;5.304;2023-02-14T07:13:25;0.10;60.60
19214;DHT22;9741;51.020;5.304;2023-02-14T07:15:52;0.20;60.80
19214;DHT22;9741;51.020;5.304;2023-02-14T07:18:21;0.20;60.80
19214;DHT22;9741;51.020;5.304;2023-02-14T07:20:48;0.20;60.80
19214;DHT22;9741;51.020;5.304;2023-02-14T07:23:15;0.30;60.90
19214;DHT22;9741;51.020;5.304;2023-02-14T07:25:42;0.30;60.80
19214;DHT22;9741;51.020;5.304;2023-02-14T07:28:09;0.40;60.90
19214;DHT22;9741;51.020;5.304;2023-02-14T07:30:36;0.40;60.90
19214;DHT22;9741;51.020;5.304;2023-02-14T07:33:03;0.40;60.80
19214;DHT22;9741;51.020;5.304;2023-02-14T07:35:32;0.50;61.00
19214;DHT22;9741;51.020;5.304;2023-02-14T07:37:59;0.50;60.90
19214;DHT22;9741;51.020;5.304;2023-02-14T07:40:27;0.60;61.00
19214;DHT22;9741;51.020;5.304;2023-02-14T07:42:55;0.70;61.00
19214;DHT22;9741;51.020;5.304;2023-02-14T07:45:23;0.70;61.00
19214;DHT22;9741;51.020;5.304;2023-02-14T07:47:52;0.80;61.10
19214;DHT22;9741;51.020;5.304;2023-02-14T07:50:20;0.80;61.00
19214;DHT22;9741;51.020;5.304;2023-02-14T07:52:49;0.90;61.10
19214;DHT22;9741;51.020;5.304;2023-02-14T07:55:16;1.00;61.10
19214;DHT22;9741;51.020;5.304;2023-02-14T07:57:45;1.00;61.10
19214;DHT22;9741;51.020;5.304;2023-02-14T08:00:13;1.10;61.10
19214;DHT22;9741;51.020;5.304;2023-02-14T08:02:40;1.20;61.20
19214;DHT22;9741;51.020;5.304;2023-02-14T08:05:07;1.30;61.20
19214;DHT22;9741;51.020;5.304;2023-02-14T08:07:34;1.30;61.10
19214;DHT22;9741;51.020;5.304;2023-02-14T08:10:03;1.30;61.10
19214;DHT22;9741;51.020;5.304;2023-02-14T08:12:31;1.40;61.20
19214;DHT22;9741;51.020;5.304;2023-02-14T08:15:15;1.50;61.20
19214;DHT22;9741;51.020;5.304;2023-02-14T08:17:59;1.60;61.30
19214;DHT22;9741;51.020;5.304;2023-02-14T08:20:26;1.70;61.30
19214;DHT22;9741;51.020;5.304;2023-02-14T08:22:53;1.70;61.30
19214;DHT22;9741;51.020;5.304;2023-02-14T08:25:22;1.80;61.90
19214;DHT22;9741;51.020;5.304;2023-02-14T08:27:49;1.90;61.40
19214;DHT22;9741;51.020;5.304;2023-02-14T08:30:16;2.00;61.40
19214;DHT22;9741;51.020;5.304;2023-02-14T08:32:43;2.00;61.40
19214;DHT22;9741;51.020;5.304;2023-02-14T08:35:10;2.20;61.60
19214;DHT22;9741;51.020;5.304;2023-02-14T08:37:37;2.30;61.70
19214;DHT22;9741;51.020;5.304;2023-02-14T08:40:06;2.40;61.80
19214;DHT22;9741;51.020;5.304;2023-02-14T08:42:34;2.50;61.80
19214;DHT22;9741;51.020;5.304;2023-02-14T08:45:01;2.70;62.00
19214;DHT22;9741;51.020;5.304;2023-02-14T08:47:29;2.80;62.10
19214;DHT22;9741;51.020;5.304;2023-02-14T08:50:00;2.90;62.00
19214;DHT22;9741;51.020;5.304;2023-02-14T08:52:27;3.00;62.00
19214;DHT22;9741;51.020;5.304;2023-02-14T08:54:54;3.10;62.00
19214;DHT22;9741;51.020;5.304;2023-02-14T08:57:21;3.30;62.10
19214;DHT22;9741;51.020;5.304;2023-02-14T08:59:50;3.40;62.20
19214;DHT22;9741;51.020;5.304;2023-02-14T09:02:17;3.50;62.20
19214;DHT22;9741;51.020;5.304;2023-02-14T09:04:44;3.60;62.30
19214;DHT22;9741;51.020;5.304;2023-02-14T09:07:11;3.80;62.40
19214;DHT22;9741;51.020;5.304;2023-02-14T09:09:38;3.90;62.50
19214;DHT22;9741;51.020;5.304;2023-02-14T09:12:07;4.00;62.40
19214;DHT22;9741;51.020;5.304;2023-02-14T09:14:35;4.20;62.60
19214;DHT22;9741;51.020;5.304;2023-02-14T09:17:05;4.30;62.60
19214;DHT22;9741;51.020;5.304;2023-02-14T09:19:33;4.40;62.60
19214;DHT22;9741;51.020;5.304;2023-02-14T09:22:00;4.50;62.70
19214;DHT22;9741;51.020;5.304;2023-02-14T09:24:28;4.60;62.70
19214;DHT22;9741;51.020;5.304;2023-02-14T09:26:56;4.70;62.70
19214;DHT22;9741;51.020;5.304;2023-02-14T09:29:23;4.80;62.80
19214;DHT22;9741;51.020;5.304;2023-02-14T09:31:51;4.90;62.90
19214;DHT22;9741;51.020;5.304;2023-02-14T09:34:19;5.10;63.00
19214;DHT22;9741;51.020;5.304;2023-02-14T09:36:46;5.20;63.10
19214;DHT22;9741;51.020;5.304;2023-02-14T09:39:31;5.30;63.10
19214;DHT22;9741;51.020;5.304;2023-02-14T09:42:20;5.50;63.20
19214;DHT22;9741;51.020;5.304;2023-02-14T09:44:52;5.60;63.30
19214;DHT22;9741;51.020;5.304;2023-02-14T09:47:29;5.70;63.30
19214;DHT22;9741;51.020;5.304;2023-02-14T09:50:02;5.90;63.40
19214;DHT22;9741;51.020;5.304;2023-02-14T09:52:30;5.90;63.40
19214;DHT22;9741;51.020;5.304;2023-02-14T09:54:59;6.00;63.40
19214;DHT22;9741;51.020;5.304;2023-02-14T09:57:35;6.10;63.50
19214;DHT22;9741;51.020;5.304;2023-02-14T10:00:16;6.20;63.60
19214;DHT22;9741;51.020;5.304;2023-02-14T10:02:52;6.30;63.60
19214;DHT22;9741;51.020;5.304;2023-02-14T10:05:26;6.40;63.80
19214;DHT22;9741;51.020;5.304;2023-02-14T10:07:59;6.50;63.80
19214;DHT22;9741;51.020;5.304;2023-02-14T10:10:30;6.60;63.80
19214;DHT22;9741;51.020;5.304;2023-02-14T10:13:03;6.70;63.90
19214;DHT22;9741;51.020;5.304;2023-02-14T10:15:35;6.80;64.00
19214;DHT22;9741;51.020;5.304;2023-02-14T10:18:09;6.90;64.00
19214;DHT22;9741;51.020;5.304;2023-02-14T10:20:42;7.00;64.10
19214;DHT22;9741;51.020;5.304;2023-02-14T10:23:26;7.10;64.70
19214;DHT22;9741;51.020;5.304;2023-02-14T10:25:59;7.20;64.10
19214;DHT22;9741;51.020;5.304;2023-02-14T10:28:31;7.30;64.10
19214;DHT22;9741;51.020;5.304;2023-02-14T10:31:06;7.40;64.20
19214;DHT22;9741;51.020;5.304;2023-02-14T10:33:41;7.50;64.30
19214;DHT22;9741;51.020;5.304;2023-02-14T10:36:16;7.50;64.20
19214;DHT22;9741;51.020;5.304;2023-02-14T10:38:52;7.60;64.30
19214;DHT22;9741;51.020;5.304;2023-02-14T10:41:29;7.80;64.40
19214;DHT22;9741;51.020;5.304;2023-02-14T10:44:11;7.80;64.20
19214;DHT22;9741;51.020;5.304;2023-02-14T10:46:46;7.90;65.00
19214;DHT22;9741;51.020;5.304;2023-02-14T10:49:25;8.00;64.30
19214;DHT22;9741;51.020;5.304;2023-02-14T10:51:59;8.10;64.40
19214;DHT22;9741;51.020;5.304;2023-02-14T10:54:33;8.20;64.40
19214;DHT22;9741;51.020;5.304;2023-02-14T10:57:06;8.20;64.90
19214;DHT22;9741;51.020;5.304;2023-02-14T10:59:43;8.30;64.40
19214;DHT22;9741;51.020;5.304;2023-02-14T11:02:14;8.30;64.30
19214;DHT22;9741;51.020;5.304;2023-02-14T11:04:43;8.40;64.30
19214;DHT22;9741;51.020;5.304;2023-02-14T11:07:14;8.40;64.30
19214;DHT22;9741;51.020;5.304;2023-02-14T11:09:42;8.50;64.30
19214;DHT22;9741;51.020;5.304;2023-02-14T11:12:09;8.50;64.20
19214;DHT22;9741;51.020;5.304;2023-02-14T11:14:38;8.60;64.30
19214;DHT22;9741;51.020;5.304;2023-02-14T11:17:27;8.70;64.30
19214;DHT22;9741;51.020;5.304;2023-02-14T11:19:59;8.80;64.20
19214;DHT22;9741;51.020;5.304;2023-02-14T11:22:32;8.90;64.20
19214;DHT22;9741;51.020;5.304;2023-02-14T11:25:06;9.00;64.10
19214;DHT22;9741;51.020;5.304;2023-02-14T11:27:34;9.10;64.10
19214;DHT22;9741;51.020;5.304;2023-02-14T11:30:01;9.20;64.00
19214;DHT22;9741;51.020;5.304;2023-02-14T11:32:38;9.20;63.80
19214;DHT22;9741;51.020;5.304;2023-02-14T11:35:15;9.30;63.70
19214;DHT22;9741;51.020;5.304;2023-02-14T11:37:48;9.40;63.70
19214;DHT22;9741;51.020;5.304;2023-02-14T11:40:25;9.50;63.60
19214;DHT22;9741;51.020;5.304;2023-02-14T11:42:54;9.60;63.40
19214;DHT22;9741;51.020;5.304;2023-02-14T11:45:30;9.70;63.20
19214;DHT22;9741;51.020;5.304;2023-02-14T11:48:17;9.80;63.20
19214;DHT22;9741;51.020;5.304;2023-02-14T11:50:56;9.80;62.90
19214;DHT22;9741;51.020;5.304;2023-02-14T11:53:27;10.00;62.00
19214;DHT22;9741;51.020;5.304;2023-02-14T11:55:56;10.00;61.90
19214;DHT22;9741;51.020;5.304;2023-02-14T11:58:30;10.10;61.90
19214;DHT22;9741;51.020;5.304;2023-02-14T12:00:59;10.20;61.80
19214;DHT22;9741;51.020;5.304;2023-02-14T12:03:27;10.30;61.60
19214;DHT22;9741;51.020;5.304;2023-02-14T12:05:55;10.40;61.40
19214;DHT22;9741;51.020;5.304;2023-02-14T12:08:29;10.40;61.10
19214;DHT22;9741;51.020;5.304;2023-02-14T12:11:01;10.50;61.00
19214;DHT22;9741;51.020;5.304;2023-02-14T12:13:29;10.60;60.80
19214;DHT22;9741;51.020;5.304;2023-02-14T12:15:57;10.70;60.80
19214;DHT22;9741;51.020;5.304;2023-02-14T12:18:46;10.80;60.60
19214;DHT22;9741;51.020;5.304;2023-02-14T12:21:37;10.90;60.30
19214;DHT22;9741;51.020;5.304;2023-02-14T12:24:15;11.00;60.20
19214;DHT22;9741;51.020;5.304;2023-02-14T12:26:48;11.00;60.00
19214;DHT22;9741;51.020;5.304;2023-02-14T12:29:21;11.10;59.90
19214;DHT22;9741;51.020;5.304;2023-02-14T12:31:51;11.10;59.70
19214;DHT22;9741;51.020;5.304;2023-02-14T12:34:19;11.20;59.60
19214;DHT22;9741;51.020;5.304;2023-02-14T12:37:10;11.30;59.40
19214;DHT22;9741;51.020;5.304;2023-02-14T12:39:53;11.30;59.10
19214;DHT22;9741;51.020;5.304;2023-02-14T12:42:38;11.40;59.00
19214;DHT22;9741;51.020;5.304;2023-02-14T12:45:13;11.40;58.80
19214;DHT22;9741;51.020;5.304;2023-02-14T12:47:49;11.50;58.70
19214;DHT22;9741;51.020;5.304;2023-02-14T12:50:28;11.50;58.50
19214;DHT22;9741;51.020;5.304;2023-02-14T12:56:03;11.70;58.20
19214;DHT22;9741;51.020;5.304;2023-02-14T12:58:43;11.80;58.20
19214;DHT22;9741;51.020;5.304;2023-02-14T13:04:20;11.90;57.80
19214;DHT22;9741;51.020;5.304;2023-02-14T13:06:52;11.90;57.70
19214;DHT22;9741;51.020;5.304;2023-02-14T13:09:29;12.00;57.50
19214;DHT22;9741;51.020;5.304;2023-02-14T13:12:06;12.00;57.20
19214;DHT22;9741;51.020;5.304;2023-02-14T13:14:56;12.10;57.60
19214;DHT22;9741;51.020;5.304;2023-02-14T13:17:33;12.20;57.00
19214;DHT22;9741;51.020;5.304;2023-02-14T13:20:16;12.20;56.80
19214;DHT22;9741;51.020;5.304;2023-02-14T13:22:49;12.30;56.60
19214;DHT22;9741;51.020;5.304;2023-02-14T13:25:23;12.30;56.50
19214;DHT22;9741;51.020;5.304;2023-02-14T13:27:58;12.40;56.20
19214;DHT22;9741;51.020;5.304;2023-02-14T13:30:28;12.40;55.90
19214;DHT22;9741;51.020;5.304;2023-02-14T13:32:59;12.50;55.60
19214;DHT22;9741;51.020;5.304;2023-02-14T13:35:28;12.60;55.30
19214;DHT22;9741;51.020;5.304;2023-02-14T13:37:58;12.70;55.20
19214;DHT22;9741;51.020;5.304;2023-02-14T13:40:28;12.70;54.90
19214;DHT22;9741;51.020;5.304;2023-02-14T13:42:59;12.80;54.80
19214;DHT22;9741;51.020;5.304;2023-02-14T13:48:31;12.90;54.20
19214;DHT22;9741;51.020;5.304;2023-02-14T13:51:00;12.90;54.00
19214;DHT22;9741;51.020;5.304;2023-02-14T13:53:36;13.00;53.90
19214;DHT22;9741;51.020;5.304;2023-02-14T13:58:50;13.00;53.40
19214;DHT22;9741;51.020;5.304;2023-02-14T14:01:35;13.10;53.30
19214;DHT22;9741;51.020;5.304;2023-02-14T14:04:05;13.10;53.20
19214;DHT22;9741;51.020;5.304;2023-02-14T14:07:19;13.10;53.10
19214;DHT22;9741;51.020;5.304;2023-02-14T14:10:01;13.10;53.00
19214;DHT22;9741;51.020;5.304;2023-02-14T14:12:42;13.10;53.00
19214;DHT22;9741;51.020;5.304;2023-02-14T14:15:16;13.10;52.90
19214;DHT22;9741;51.020;5.304;2023-02-14T14:20:49;13.10;52.50
19214;DHT22;9741;51.020;5.304;2023-02-14T14:23:30;13.10;52.40
19214;DHT22;9741;51.020;5.304;2023-02-14T14:25:59;13.20;52.40
19214;DHT22;9741;51.020;5.304;2023-02-14T14:28:27;13.20;52.20
19214;DHT22;9741;51.020;5.304;2023-02-14T14:30:57;13.20;52.10
19214;DHT22;9741;51.020;5.304;2023-02-14T14:33:27;13.20;52.00
19214;DHT22;9741;51.020;5.304;2023-02-14T14:35:56;13.20;51.90
19214;DHT22;9741;51.020;5.304;2023-02-14T14:38:24;13.20;51.80
19214;DHT22;9741;51.020;5.304;2023-02-14T14:40:51;13.20;51.80
19214;DHT22;9741;51.020;5.304;2023-02-14T14:43:25;13.20;51.70
19214;DHT22;9741;51.020;5.304;2023-02-14T14:45:53;13.20;51.60
19214;DHT22;9741;51.020;5.304;2023-02-14T14:48:26;13.20;51.50
19214;DHT22;9741;51.020;5.304;2023-02-14T14:50:54;13.20;51.40
19214;DHT22;9741;51.020;5.304;2023-02-14T14:53:25;13.10;51.30
19214;DHT22;9741;51.020;5.304;2023-02-14T14:55:53;13.10;51.30
19214;DHT22;9741;51.020;5.304;2023-02-14T14:58:35;13.00;51.20
19214;DHT22;9741;51.020;5.304;2023-02-14T15:01:03;13.00;51.20
19214;DHT22;9741;51.020;5.304;2023-02-14T15:03:32;12.90;51.20
19214;DHT22;9741;51.020;5.304;2023-02-14T15:06:06;12.90;51.20
19214;DHT22;9741;51.020;5.304;2023-02-14T15:08:34;12.90;51.20
19214;DHT22;9741;51.020;5.304;2023-02-14T15:11:05;12.90;51.10
19214;DHT22;9741;51.020;5.304;2023-02-14T15:13:38;12.80;51.00
19214;DHT22;9741;51.020;5.304;2023-02-14T15:16:17;12.80;51.00
19214;DHT22;9741;51.020;5.304;2023-02-14T15:18:46;12.70;51.00
19214;DHT22;9741;51.020;5.304;2023-02-14T15:21:16;12.70;51.00
19214;DHT22;9741;51.020;5.304;2023-02-14T15:23:44;12.60;51.00
19214;DHT22;9741;51.020;5.304;2023-02-14T15:26:17;12.60;51.00
19214;DHT22;9741;51.020;5.304;2023-02-14T15:28:45;12.50;50.90
19214;DHT22;9741;51.020;5.304;2023-02-14T15:31:19;12.60;51.00
19214;DHT22;9741;51.020;5.304;2023-02-14T15:33:48;12.60;51.00
19214;DHT22;9741;51.020;5.304;2023-02-14T15:36:18;12.60;51.00
19214;DHT22;9741;51.020;5.304;2023-02-14T15:38:49;12.60;50.90
19214;DHT22;9741;51.020;5.304;2023-02-14T15:41:16;12.50;50.80
19214;DHT22;9741;51.020;5.304;2023-02-14T15:43:49;12.40;50.70
19214;DHT22;9741;51.020;5.304;2023-02-14T15:46:23;12.40;50.80
19214;DHT22;9741;51.020;5.304;2023-02-14T15:48:54;12.30;50.80
19214;DHT22;9741;51.020;5.304;2023-02-14T15:51:25;12.30;50.90
19214;DHT22;9741;51.020;5.304;2023-02-14T15:53:54;12.20;50.80
19214;DHT22;9741;51.020;5.304;2023-02-14T15:56:25;12.20;50.90
19214;DHT22;9741;51.020;5.304;2023-02-14T15:58:58;12.10;50.90
19214;DHT22;9741;51.020;5.304;2023-02-14T16:01:25;12.00;51.00
19214;DHT22;9741;51.020;5.304;2023-02-14T16:03:56;11.90;50.90
19214;DHT22;9741;51.020;5.304;2023-02-14T16:06:33;11.90;51.00
19214;DHT22;9741;51.020;5.304;2023-02-14T16:09:01;11.80;51.00
19214;DHT22;9741;51.020;5.304;2023-02-14T16:11:30;11.70;51.00
19214;DHT22;9741;51.020;5.304;2023-02-14T16:14:26;11.60;51.00
19214;DHT22;9741;51.020;5.304;2023-02-14T16:17:02;11.60;51.10
19214;DHT22;9741;51.020;5.304;2023-02-14T16:19:38;11.40;51.10
19214;DHT22;9741;51.020;5.304;2023-02-14T16:22:07;11.30;51.20
19214;DHT22;9741;51.020;5.304;2023-02-14T16:24:34;11.20;51.30
19214;DHT22;9741;51.020;5.304;2023-02-14T16:27:02;11.10;51.30
19214;DHT22;9741;51.020;5.304;2023-02-14T16:29:32;11.00;51.30
19214;DHT22;9741;51.020;5.304;2023-02-14T16:32:08;10.90;51.30
19214;DHT22;9741;51.020;5.304;2023-02-14T16:34:37;10.80;51.30
19214;DHT22;9741;51.020;5.304;2023-02-14T16:37:06;10.70;51.40
19214;DHT22;9741;51.020;5.304;2023-02-14T16:39:33;10.50;51.30
19214;DHT22;9741;51.020;5.304;2023-02-14T16:42:02;10.40;51.40
19214;DHT22;9741;51.020;5.304;2023-02-14T16:44:29;10.30;51.40
19214;DHT22;9741;51.020;5.304;2023-02-14T16:46:56;10.20;51.50